Time;durP1;ratioP1;P1;durP2;ratioP2;P2;SDS_P1;SDS_P2;PMS_P1;PMS_P2;Temp;Humidity;BMP_temperature;BMP_pressure;BME280_temperature;BME280_humidity;BME280_pressure;Samples;Min_cycle;Max_cycle;Signal;HPM_P1;HPM_P2
2022/03/07 05:12:38;;;;;;;;;38.75;35.25;;;;;15.58;53.48;101911.38;5088420;27;45902;-74
2022/03/07 05:15:04;;;;;;;;;42.25;37.25;;;;;15.82;53.67;101910.91;5079833;27;45626;-77
2022/03/07 05:17:29;;;;;;;;;42.25;36.25;;;;;16.11;53.48;101913.75;5086440;27;45522;-75
2022/03/07 05:19:55;;;;;;;;;41.00;35.00;;;;;16.39;52.89;101908.56;5101053;27;45607;-76
2022/03/07 05:22:20;;;;;;;;;38.75;34.50;;;;;16.65;52.88;101900.72;5089511;27;46317;-76
2022/03/07 05:24:45;;;;;;;;;44.50;37.50;;;;;17.03;52.91;101907.34;5089734;27;45365;-76
2022/03/07 05:27:11;;;;;;;;;43.25;34.50;;;;;17.31;52.83;101909.19;5087212;27;45464;-74
2022/03/07 05:29:36;;;;;;;;;38.00;33.75;;;;;17.58;52.18;101902.13;5087039;27;48982;-74
2022/03/07 05:32:03;;;;;;;;;35.50;33.50;;;;;17.91;52.07;101908.91;5085449;27;46283;-77
2022/03/07 05:34:28;;;;;;;;;34.75;29.50;;;;;18.19;51.81;101915.09;5081952;27;45520;-77
2022/03/07 05:36:53;;;;;;;;;35.50;30.75;;;;;18.43;51.48;101917.09;5088458;27;45448;-68
2022/03/07 05:39:19;;;;;;;;;30.75;29.75;;;;;18.65;51.11;101921.00;5086974;27;45458;-68
2022/03/07 05:41:45;;;;;;;;;30.00;29.25;;;;;18.85;50.96;101916.03;5087132;27;45893;-68
2022/03/07 05:44:10;;;;;;;;;32.25;27.25;;;;;19.08;50.68;101931.44;5087892;27;45810;-68
2022/03/07 05:46:36;;;;;;;;;33.25;28.50;;;;;19.24;50.48;101918.72;5087371;27;45932;-68
2022/03/07 05:49:02;;;;;;;;;35.50;31.00;;;;;19.39;49.75;101922.97;5087655;27;45561;-68
2022/03/07 05:51:27;;;;;;;;;28.50;25.25;;;;;19.54;50.04;101930.91;5086680;27;46291;-68
2022/03/07 05:53:53;;;;;;;;;31.75;30.00;;;;;19.62;49.61;101918.56;5087822;27;45679;-68
2022/03/07 05:56:19;;;;;;;;;27.00;26.50;;;;;19.71;49.07;101919.72;5087611;27;45425;-68
2022/03/07 05:58:46;;;;;;;;;30.25;28.75;;;;;19.82;49.30;101921.63;5084996;27;45468;-68
2022/03/07 06:01:12;;;;;;;;;30.50;27.75;;;;;19.96;48.89;101917.03;5072481;27;46118;-68
2022/03/07 06:03:37;;;;;;;;;25.00;24.00;;;;;20.07;49.19;101916.25;5085991;27;45512;-68
2022/03/07 06:06:02;;;;;;;;;26.00;24.75;;;;;20.16;48.72;101917.38;5079180;27;46353;-68
2022/03/07 06:08:28;;;;;;;;;25.75;25.00;;;;;20.24;48.68;101914.97;5082580;27;45857;-69
2022/03/07 06:10:53;;;;;;;;;34.25;28.25;;;;;20.30;48.35;101919.00;5085875;27;54140;-69
2022/03/07 06:13:19;;;;;;;;;35.50;33.25;;;;;20.30;46.95;101924.38;5087750;27;45998;-69
2022/03/07 06:15:44;;;;;;;;;30.50;30.50;;;;;20.24;46.79;101929.28;5085766;27;45572;-69
2022/03/07 06:18:11;;;;;;;;;29.75;27.00;;;;;20.18;46.91;101927.06;5082501;27;45639;-69
2022/03/07 06:20:37;;;;;;;;;31.50;29.25;;;;;20.14;46.80;101934.53;5086888;27;46261;-69
2022/03/07 06:23:04;;;;;;;;;30.00;28.25;;;;;20.09;46.60;101925.94;5075608;27;45461;-68
2022/03/07 06:25:30;;;;;;;;;26.50;25.75;;;;;20.05;46.57;101926.28;5072937;28;45680;-70
2022/03/07 06:27:56;;;;;;;;;32.50;30.75;;;;;20.01;46.48;101933.72;5066416;27;45569;-70
2022/03/07 06:30:21;;;;;;;;;28.25;24.75;;;;;19.93;46.57;101930.72;5070048;27;46052;-70
2022/03/07 06:32:46;;;;;;;;;26.75;25.50;;;;;19.91;46.75;101938.94;5070984;28;45476;-70
2022/03/07 06:35:12;;;;;;;;;29.75;28.50;;;;;19.88;46.44;101937.31;5064093;28;46285;-70
2022/03/07 06:37:37;;;;;;;;;27.25;27.25;;;;;19.84;46.90;101943.94;5064368;27;46003;-70
2022/03/07 06:40:04;;;;;;;;;27.25;24.75;;;;;19.82;46.92;101934.25;5070333;27;45425;-71
2022/03/07 06:42:30;;;;;;;;;30.00;29.50;;;;;19.78;46.59;101933.59;5059661;27;45699;-71
2022/03/07 06:44:55;;;;;;;;;28.50;26.50;;;;;19.75;46.88;101940.06;5060517;28;45435;-72
2022/03/07 06:47:20;;;;;;;;;33.50;30.00;;;;;19.73;47.03;101946.53;5070418;27;45495;-72
2022/03/07 06:49:48;;;;;;;;;27.75;23.00;;;;;19.71;46.61;101945.81;5060759;28;45912;-73
2022/03/07 06:52:13;;;;;;;;;34.00;28.75;;;;;19.71;46.58;101953.88;5070073;27;46359;-71
2022/03/07 06:54:39;;;;;;;;;37.25;30.50;;;;;19.64;46.60;101939.13;5072153;27;45908;-82
2022/03/07 06:57:04;;;;;;;;;29.25;28.50;;;;;19.72;46.68;101947.53;5069092;27;45497;-82
2022/03/07 06:59:29;;;;;;;;;33.25;28.00;;;;;19.86;46.47;101941.97;5070372;28;46192;-81
2022/03/07 07:01:55;;;;;;;;;31.50;28.25;;;;;20.01;46.40;101945.38;5071047;27;46574;-82
2022/03/07 07:04:20;;;;;;;;;28.50;26.50;;;;;20.11;46.55;101942.84;5068439;27;45591;-82
2022/03/07 07:06:46;;;;;;;;;29.50;29.00;;;;;20.26;46.23;101946.22;5070851;27;45736;-77
2022/03/07 07:09:11;;;;;;;;;41.25;31.50;;;;;20.38;45.78;101940.84;5069012;27;46205;-86
2022/03/07 07:11:36;;;;;;;;;34.50;30.25;;;;;20.47;45.53;101932.03;5070461;28;45836;-80
2022/03/07 07:14:03;;;;;;;;;34.25;30.00;;;;;20.63;45.83;101938.94;5076055;27;45395;-79
2022/03/07 07:16:28;;;;;;;;;35.75;31.25;;;;;20.79;45.48;101938.59;5074387;27;45548;-78
2022/03/07 07:18:53;;;;;;;;;33.00;31.00;;;;;20.91;45.45;101940.38;5070285;27;45710;-78
2022/03/07 07:21:18;;;;;;;;;36.25;30.75;;;;;21.06;45.84;101932.03;5069027;27;45928;-79
2022/03/07 07:23:44;;;;;;;;;42.50;31.75;;;;;21.17;45.23;101928.47;5073344;27;46213;-79
2022/03/07 07:26:10;;;;;;;;;40.25;35.00;;;;;21.31;44.08;101930.03;5070036;27;45379;-77
2022/03/07 07:28:35;;;;;;;;;40.25;34.00;;;;;21.36;43.59;101935.03;5071632;27;45532;-80
2022/03/07 07:31:01;;;;;;;;;49.25;36.75;;;;;21.39;42.46;101934.81;5076806;27;45411;-79
2022/03/07 07:33:26;;;;;;;;;47.50;37.25;;;;;21.39;41.42;101941.06;5072442;27;45553;-81
2022/03/07 07:35:51;;;;;;;;;42.50;36.50;;;;;21.38;40.29;101936.63;5071764;27;46995;-76
2022/03/07 07:38:19;;;;;;;;;40.50;35.00;;;;;21.39;41.32;101941.06;5066811;27;46153;-78
2022/03/07 07:40:44;;;;;;;;;46.00;35.50;;;;;21.46;41.63;101944.13;5068715;27;45975;-77
2022/03/07 07:43:10;;;;;;;;;46.25;35.25;;;;;21.53;41.22;101926.44;5071538;27;45436;-79
2022/03/07 07:45:35;;;;;;;;;47.25;34.25;;;;;21.70;41.59;101938.53;5065388;28;46745;-75
2022/03/07 07:48:01;;;;;;;;;40.75;33.75;;;;;21.83;40.95;101946.50;5067357;28;45466;-76
2022/03/07 07:50:27;;;;;;;;;37.50;31.50;;;;;21.96;40.99;101940.94;5070488;28;45364;-79
2022/03/07 07:52:55;;;;;;;;;36.00;33.00;;;;;22.10;40.80;101941.63;5067974;27;45548;-76
2022/03/07 07:55:21;;;;;;;;;32.00;29.50;;;;;22.19;41.23;101946.25;5069970;27;45538;-83
2022/03/07 07:57:46;;;;;;;;;46.00;38.00;;;;;22.27;39.64;101952.84;5063075;27;45860;-85
2022/03/07 08:00:15;;;;;;;;;43.50;33.75;;;;;22.28;40.39;101951.88;5068129;28;45559;-74
2022/03/07 08:02:41;;;;;;;;;34.00;30.50;;;;;22.27;40.14;101940.19;5072080;27;45648;-80
2022/03/07 08:05:07;;;;;;;;;38.00;31.25;;;;;22.34;40.10;101946.78;5068760;28;45711;-77
2022/03/07 08:07:34;;;;;;;;;36.00;31.75;;;;;22.40;40.46;101944.53;5068748;27;45610;-77
2022/03/07 08:10:00;;;;;;;;;36.00;31.25;;;;;22.47;40.55;101949.28;5068493;28;45451;-77
2022/03/07 08:12:26;;;;;;;;;38.25;31.00;;;;;22.56;40.86;101949.53;5063498;28;45838;-75
2022/03/07 08:14:52;;;;;;;;;46.00;31.00;;;;;22.66;40.34;101942.31;5072586;27;45743;-75
2022/03/07 08:17:17;;;;;;;;;34.25;29.75;;;;;22.75;40.36;101941.53;5068840;27;46093;-75
2022/03/07 08:19:42;;;;;;;;;35.00;30.00;;;;;22.85;40.65;101951.53;5071338;27;45883;-75
2022/03/07 08:22:08;;;;;;;;;32.75;30.25;;;;;22.93;40.95;101945.44;5072339;27;45865;-76
2022/03/07 08:24:33;;;;;;;;;32.00;27.25;;;;;23.00;40.43;101952.91;5068920;27;45584;-74
2022/03/07 08:26:58;;;;;;;;;29.00;26.25;;;;;23.05;40.84;101940.81;5056430;27;46869;-74
2022/03/07 08:29:24;;;;;;;;;31.50;26.50;;;;;23.16;40.91;101949.69;5070518;28;49528;-74
2022/03/07 08:31:50;;;;;;;;;25.75;24.50;;;;;23.29;40.78;101944.03;5067510;27;45409;-74
2022/03/07 08:34:15;;;;;;;;;28.00;26.50;;;;;23.41;40.78;101946.63;5068480;27;45777;-74
2022/03/07 08:36:40;;;;;;;;;27.25;26.00;;;;;23.52;40.98;101937.53;5069555;27;46112;-73
2022/03/07 08:39:06;;;;;;;;;26.00;22.25;;;;;23.62;40.48;101940.28;5069821;27;45445;-73
2022/03/07 08:41:31;;;;;;;;;28.75;24.75;;;;;23.69;40.57;101938.72;5071460;27;45704;-74
2022/03/07 08:43:57;;;;;;;;;29.25;22.50;;;;;23.74;41.03;101938.31;5065953;28;45692;-74
2022/03/07 08:46:24;;;;;;;;;24.00;23.50;;;;;23.77;40.54;101936.16;5064969;27;45742;-74
2022/03/07 08:48:50;;;;;;;;;25.25;21.25;;;;;23.81;40.54;101924.03;5071445;27;45407;-74
2022/03/07 08:51:15;;;;;;;;;25.75;24.25;;;;;23.85;40.82;101931.88;5066073;27;45900;-73
2022/03/07 08:53:40;;;;;;;;;26.00;21.00;;;;;23.86;40.58;101918.16;5071382;27;45303;-73
2022/03/07 08:56:06;;;;;;;;;25.50;21.75;;;;;23.91;40.79;101915.88;5067165;28;45888;-73
2022/03/07 08:58:31;;;;;;;;;16.00;15.00;;;;;23.91;40.78;101902.34;5069184;27;45724;-74
2022/03/07 09:00:56;;;;;;;;;26.33;20.33;;;;;24.01;40.84;101915.03;5071641;27;45719;-72
2022/03/07 09:03:22;;;;;;;;;23.00;21.67;;;;;24.04;41.22;101922.91;5067938;27;46037;-71
2022/03/07 09:05:47;;;;;;;;;7.67;6.67;;;;;24.08;40.71;101927.03;5070648;27;46730;-71
2022/03/07 09:08:12;;;;;;;;;21.00;20.67;;;;;24.09;41.08;101920.63;5069118;28;45437;-76
2022/03/07 09:10:38;;;;;;;;;20.33;16.67;;;;;24.13;40.83;101919.34;5068263;27;45508;-77
2022/03/07 09:13:03;;;;;;;;;21.50;20.00;;;;;24.20;40.65;101923.19;5070006;27;45662;-77
2022/03/07 09:15:29;;;;;;;;;21.25;21.25;;;;;24.25;40.51;101925.47;5068920;27;45901;-79
2022/03/07 09:17:54;;;;;;;;;25.00;22.00;;;;;24.30;40.37;101923.19;5067781;27;45376;-78
2022/03/07 09:20:20;;;;;;;;;24.33;21.33;;;;;24.34;40.18;101924.59;5067297;27;45429;-78
2022/03/07 09:22:46;;;;;;;;;27.00;22.33;;;;;24.38;39.75;101925.16;5068645;27;45593;-75
2022/03/07 09:25:12;;;;;;;;;31.75;24.25;;;;;24.38;39.43;101916.16;5074346;27;46212;-74
2022/03/07 09:27:38;;;;;;;;;30.25;24.75;;;;;24.37;39.23;101917.16;5070970;28;45688;-74
2022/03/07 09:30:06;;;;;;;;;24.50;24.25;;;;;24.38;39.39;101916.16;5068834;27;45676;-74
2022/03/07 09:32:32;;;;;;;;;29.33;24.33;;;;;24.41;39.14;101915.88;5071970;28;50611;-74
2022/03/07 09:34:57;;;;;;;;;23.00;20.33;;;;;24.42;39.46;101915.72;5065142;27;46112;-74
2022/03/07 09:37:22;;;;;;;;;30.75;27.25;;;;;24.42;39.37;101907.59;5069275;27;45793;-73
2022/03/07 09:39:48;;;;;;;;;29.25;22.25;;;;;24.47;39.56;101918.88;5072306;27;45778;-73
2022/03/07 09:42:14;;;;;;;;;30.00;24.00;;;;;24.47;39.42;101916.16;5069540;27;45433;-74
2022/03/07 09:44:39;;;;;;;;;23.00;21.00;;;;;24.54;39.80;101907.41;5072913;28;46255;-74
2022/03/07 09:47:05;;;;;;;;;29.33;22.00;;;;;24.56;39.54;101917.13;5069048;28;45643;-74
2022/03/07 09:49:31;;;;;;;;;23.33;18.00;;;;;24.58;39.73;101908.84;5067037;28;45537;-74
2022/03/07 09:51:58;;;;;;;;;30.75;27.00;;;;;24.59;38.71;101905.09;5072285;27;45378;-78
2022/03/07 09:54:24;;;;;;;;;39.50;26.50;;;;;24.54;38.01;101902.84;5071740;27;46166;-77
2022/03/07 09:56:50;;;;;;;;;29.50;26.75;;;;;24.42;38.20;101894.03;5071264;27;45477;-74
2022/03/07 09:59:17;;;;;;;;;34.00;27.50;;;;;24.42;38.40;101913.03;5075161;28;45439;-75
2022/03/07 10:01:43;;;;;;;;;33.25;27.25;;;;;24.40;38.37;101908.75;5070853;28;45524;-75
2022/03/07 10:04:11;;;;;;;;;25.00;22.67;;;;;24.40;38.42;101904.16;5066117;28;45406;-75
2022/03/07 10:06:38;;;;;;;;;32.67;30.33;;;;;24.40;38.63;101893.31;5074963;28;45455;-75
2022/03/07 10:09:04;;;;;;;;;27.00;24.00;;;;;24.40;38.27;101893.31;5074024;27;45454;-76
2022/03/07 10:11:32;;;;;;;;;28.00;23.25;;;;;24.50;38.60;101897.84;5074935;28;45656;-75
2022/03/07 10:14:03;;;;;;;;;33.00;28.33;;;;;24.54;38.49;101888.41;5073750;27;46410;-75
2022/03/07 10:16:42;;;;;;;;;27.00;24.67;;;;;24.60;38.54;101894.09;5066866;28;45363;-76
2022/03/07 10:19:15;;;;;;;;;29.75;27.00;;;;;24.67;38.45;101891.66;5075308;27;45481;-77
2022/03/07 10:21:50;;;;;;;;;36.67;28.00;;;;;24.70;38.57;101879.66;5074224;27;52797;-77
2022/03/07 10:24:16;;;;;;;;;28.33;23.33;;;;;24.75;38.49;101882.78;5074456;27;46008;-74
2022/03/07 10:26:41;;;;;;;;;29.75;24.50;;;;;24.78;38.51;101887.03;5067538;28;45539;-75
2022/03/07 10:29:07;;;;;;;;;28.50;26.25;;;;;24.80;38.60;101883.16;5075175;28;45528;-74
2022/03/07 10:31:32;;;;;;;;;32.33;22.67;;;;;24.84;38.59;101876.47;5071494;28;45414;-75
2022/03/07 10:34:09;;;;;;;;;29.33;27.33;;;;;24.86;38.49;101876.34;5075297;28;45499;-75
2022/03/07 10:36:41;;;;;;;;;29.00;23.00;;;;;24.86;38.36;101873.63;5073536;27;45556;-75
2022/03/07 10:39:12;;;;;;;;;29.50;25.25;;;;;24.91;38.69;101875.88;5074004;27;45501;-75
2022/03/07 10:41:40;;;;;;;;;26.33;22.00;;;;;24.93;38.42;101879.31;5075872;28;45513;-76
2022/03/07 10:44:08;;;;;;;;;25.67;21.67;;;;;24.95;38.35;101875.44;5074015;28;46031;-75
2022/03/07 10:46:34;;;;;;;;;20.67;20.67;;;;;24.97;38.62;101886.16;5073007;27;45382;-75
2022/03/07 10:49:00;;;;;;;;;25.67;23.33;;;;;24.97;38.35;101878.84;5070926;27;45594;-75
2022/03/07 10:51:26;;;;;;;;;24.00;17.33;;;;;24.96;38.58;101870.84;5071136;27;45371;-75
2022/03/07 10:53:53;;;;;;;;;29.33;21.33;;;;;24.97;38.54;101867.13;5073648;27;46475;-75
2022/03/07 10:56:21;;;;;;;;;25.50;23.50;;;;;24.96;38.64;101874.41;5067403;27;45469;-74
2022/03/07 10:58:52;;;;;;;;;28.33;21.33;;;;;25.00;38.54;101855.94;5071531;28;45552;-74
2022/03/07 11:01:31;;;;;;;;;29.67;24.67;;;;;25.03;38.53;101871.94;5073760;27;45378;-73
2022/03/07 11:03:57;;;;;;;;;21.33;20.00;;;;;25.06;38.61;101874.34;5074599;28;45383;-72
2022/03/07 11:06:25;;;;;;;;;21.33;19.00;;;;;25.08;38.42;101866.91;5068657;27;46586;-74
2022/03/07 11:08:51;;;;;;;;;40.50;32.00;;;;;25.09;37.29;101860.47;5068894;28;45488;-74
2022/03/07 11:11:17;;;;;;;;;32.75;27.75;;;;;25.04;37.35;101856.50;5073124;28;45379;-74
2022/03/07 11:13:43;;;;;;;;;31.00;29.00;;;;;25.04;37.28;101853.78;5076715;27;47122;-76
2022/03/07 11:16:11;;;;;;;;;38.33;27.67;;;;;25.04;37.26;101849.22;5075038;28;45366;-74
2022/03/07 11:18:39;;;;;;;;;28.67;24.67;;;;;25.08;37.57;101844.31;5074156;27;45512;-74
2022/03/07 11:21:05;;;;;;;;;33.50;27.50;;;;;25.12;37.16;101852.03;5071938;28;45560;-74
2022/03/07 11:23:31;;;;;;;;;27.25;26.25;;;;;25.14;37.53;101838.31;5066201;27;46360;-81
2022/03/07 11:25:59;;;;;;;;;27.25;25.75;;;;;25.11;36.57;101839.47;5067846;27;45876;-75
2022/03/07 11:28:27;;;;;;;;;34.00;29.25;;;;;25.06;35.99;101840.91;5073409;28;45528;-75
2022/03/07 11:30:53;;;;;;;;;33.00;27.33;;;;;25.02;35.03;101834.06;5066468;28;45433;-75
2022/03/07 11:33:36;;;;;;;;;33.50;28.25;;;;;24.95;34.45;101829.25;5071790;28;48350;-75
2022/03/07 11:36:05;;;;;;;;;29.25;27.75;;;;;24.87;34.07;101815.59;5069982;28;45956;-77
2022/03/07 11:38:31;;;;;;;;;28.50;27.50;;;;;24.80;33.74;101815.28;5070995;28;45904;-75
2022/03/07 11:41:12;;;;;;;;;27.50;27.50;;;;;24.77;33.42;101814.75;5071625;27;45386;-75
2022/03/07 11:43:51;;;;;;;;;27.67;26.33;;;;;24.71;32.75;101816.19;5073110;27;46425;-75
2022/03/07 11:46:33;;;;;;;;;30.33;27.33;;;;;24.65;32.48;101804.09;5071734;27;45465;-75
2022/03/07 11:49:00;;;;;;;;;28.25;24.25;;;;;24.59;32.36;101800.13;5073916;27;45363;-75
2022/03/07 11:51:28;;;;;;;;;29.00;23.33;;;;;24.58;32.33;101802.97;5063841;27;45507;-75
2022/03/07 11:53:55;;;;;;;;;24.33;23.67;;;;;24.52;31.62;101796.28;5067039;28;46233;-73
2022/03/07 11:56:24;;;;;;;;;26.00;23.00;;;;;24.47;31.33;101798.59;5070631;27;45530;-75
2022/03/07 11:58:53;;;;;;;;;21.33;21.33;;;;;24.44;31.66;101791.59;5070505;28;45974;-75
2022/03/07 12:01:21;;;;;;;;;23.33;20.67;;;;;24.47;31.83;101782.31;5065097;27;45450;-76
2022/03/07 12:03:47;;;;;;;;;24.67;19.67;;;;;24.52;31.85;101777.28;5069251;27;46125;-79
2022/03/07 12:06:15;;;;;;;;;21.00;20.00;;;;;24.59;32.24;101774.81;5070999;27;45640;-74
2022/03/07 12:08:57;;;;;;;;;18.67;17.67;;;;;24.67;32.62;101774.94;5073599;27;45605;-74
2022/03/07 12:11:32;;;;;;;;;18.33;18.00;;;;;24.73;32.65;101778.91;5063127;28;45736;-74
2022/03/07 12:14:03;;;;;;;;;22.00;19.67;;;;;24.79;32.85;101781.00;5071970;27;45582;-75
2022/03/07 12:16:33;;;;;;;;;22.00;20.50;;;;;24.85;33.05;101782.31;5065854;27;45446;-75
2022/03/07 12:19:11;;;;;;;;;17.33;17.00;;;;;24.89;33.49;101782.84;5068490;27;45455;-76
2022/03/07 12:21:42;;;;;;;;;18.33;18.33;;;;;24.91;33.52;101776.25;5070419;27;45817;-76
2022/03/07 12:24:10;;;;;;;;;17.67;17.33;;;;;24.95;33.42;101772.22;5072730;27;46110;-76
2022/03/07 12:26:53;;;;;;;;;20.33;19.00;;;;;25.01;33.51;101765.31;5069855;28;45473;-74
2022/03/07 12:29:21;;;;;;;;;21.33;20.00;;;;;25.03;33.83;101766.03;5073400;28;45432;-74
2022/03/07 12:31:52;;;;;;;;;16.50;14.00;;;;;25.07;34.05;101758.41;5065706;27;45545;-73
2022/03/07 12:34:23;;;;;;;;;17.33;17.00;;;;;25.10;33.88;101753.53;5077571;27;46207;-75
2022/03/07 12:37:10;;;;;;;;;23.00;17.67;;;;;25.15;34.03;101744.94;5070916;28;45615;-75
2022/03/07 12:39:46;;;;;;;;;19.67;18.00;;;;;25.20;34.30;101752.59;5072703;27;45559;-79
2022/03/07 12:42:13;;;;;;;;;20.67;17.33;;;;;25.22;34.53;101747.88;5066163;27;45627;-75
2022/03/07 12:44:39;;;;;;;;;15.00;14.67;;;;;25.26;34.70;101738.41;5072891;27;45376;-75
2022/03/07 12:47:06;;;;;;;;;17.67;17.00;;;;;25.27;34.61;101738.22;5070901;27;45662;-75
2022/03/07 12:49:31;;;;;;;;;19.33;15.67;;;;;25.30;34.87;101742.50;5072322;27;45419;-75
2022/03/07 12:52:00;;;;;;;;;17.33;15.33;;;;;25.34;35.06;101741.19;5066781;27;45546;-75
2022/03/07 12:54:28;;;;;;;;;19.67;15.67;;;;;25.35;34.89;101732.03;5071010;28;46347;-75
2022/03/07 12:56:53;;;;;;;;;18.00;17.00;;;;;25.35;34.98;101737.47;5071525;27;45473;-76
2022/03/07 12:59:27;;;;;;;;;13.00;13.00;;;;;25.37;35.34;101724.56;5062883;27;45377;-80
2022/03/07 13:01:53;;;;;;;;;15.00;13.33;;;;;25.39;35.58;101738.00;5061777;28;45505;-74
2022/03/07 13:04:25;;;;;;;;;12.33;11.67;;;;;25.40;35.71;101726.13;5071864;27;45591;-73
2022/03/07 13:06:55;;;;;;;;;20.33;13.00;;;;;25.44;35.25;101726.66;5062901;28;45370;-73
2022/03/07 13:09:27;;;;;;;;;14.00;13.00;;;;;25.46;35.80;101719.22;5071633;27;45539;-74
2022/03/07 13:11:54;;;;;;;;;15.33;15.00;;;;;25.49;35.99;101719.72;5069536;28;45843;-74
2022/03/07 13:14:27;;;;;;;;;25.33;19.33;;;;;25.53;35.51;101714.81;5071996;27;47050;-83
2022/03/07 13:16:53;;;;;;;;;28.67;25.33;;;;;25.48;34.98;101707.16;5068190;28;45561;-82
2022/03/07 13:19:21;;;;;;;;;26.00;21.67;;;;;25.42;35.07;101701.50;5064614;28;45556;-83
2022/03/07 13:21:49;;;;;;;;;21.00;20.00;;;;;25.33;35.09;101695.13;5072924;27;46688;-83
2022/03/07 13:24:18;;;;;;;;;19.67;17.00;;;;;25.22;35.14;101705.25;5065906;27;45615;-83
2022/03/07 13:26:58;;;;;;;;;17.33;17.00;;;;;25.12;34.80;101696.34;5071117;27;45604;-83
2022/03/07 13:29:26;;;;;;;;;20.67;16.00;;;;;25.03;34.84;101689.13;5064980;28;46877;-83
2022/03/07 13:32:13;;;;;;;;;25.67;23.67;;;;;24.92;35.38;101684.75;5060770;27;45426;-85
2022/03/07 13:34:48;;;;;;;;;21.67;19.33;;;;;24.84;35.27;101680.97;5073514;28;46331;-84
2022/03/07 13:37:22;;;;;;;;;27.00;22.67;;;;;24.78;35.45;101678.00;5072423;27;45532;-77
2022/03/07 13:40:21;;;;;;;;;43.50;33.75;;;;;24.59;30.81;101672.56;5083885;27;45899;-78
2022/03/07 13:42:51;;;;;;;;;40.50;34.25;;;;;24.29;28.59;101661.03;5028376;28;45563;-84
2022/03/07 13:45:19;;;;;;;;;21.33;20.67;;;;;24.15;31.91;101669.69;5009380;28;47475;-85
2022/03/07 13:47:47;;;;;;;;;17.00;14.67;;;;;23.98;31.69;101674.84;5027121;28;45549;-85
2022/03/07 13:50:15;;;;;;;;;27.50;25.50;;;;;23.58;30.51;101666.00;5021180;28;45619;-84
2022/03/07 13:52:48;;;;;;;;;29.75;29.00;;;;;23.15;30.00;101649.22;5029023;28;45661;-86
2022/03/07 13:55:19;;;;;;;;;30.25;27.50;;;;;22.95;31.49;101657.34;5023758;28;46224;-85
2022/03/07 13:57:55;;;;;;;;;32.25;28.00;;;;;22.90;32.14;101651.53;5026286;28;45895;-87
2022/03/07 14:00:24;;;;;;;;;34.50;30.00;;;;;22.89;33.26;101647.94;5029019;28;45672;-82
2022/03/07 14:02:54;;;;;;;;;37.75;31.75;;;;;22.87;32.99;101647.25;5014624;28;45612;-81
2022/03/07 14:05:20;;;;;;;;;31.50;30.50;;;;;22.88;32.61;101654.34;5025474;28;45750;-85
2022/03/07 14:07:55;;;;;;;;;36.00;32.25;;;;;22.89;32.89;101653.34;5025531;28;45480;-87
2022/03/07 14:10:22;;;;;;;;;37.75;33.50;;;;;22.89;32.92;101647.94;5027009;28;45901;-85
2022/03/07 14:12:53;;;;;;;;;40.75;34.50;;;;;22.89;32.51;101631.69;5027718;28;45432;-87
2022/03/07 14:15:30;;;;;;;;;39.50;33.00;;;;;22.92;32.31;101637.84;5023555;28;45618;-87
2022/03/07 14:17:57;;;;;;;;;39.00;34.00;;;;;22.93;32.41;101639.56;5034471;28;45687;-82
2022/03/07 14:20:22;;;;;;;;;40.00;34.75;;;;;22.93;32.17;101636.84;5073801;27;45538;-83
2022/03/07 14:22:47;;;;;;;;;38.75;33.25;;;;;22.94;32.67;101627.72;5074265;28;45277;-84
2022/03/07 14:25:13;;;;;;;;;35.75;32.25;;;;;22.90;32.17;101619.88;5074496;28;45310;-81
2022/03/07 14:27:38;;;;;;;;;42.75;35.75;;;;;22.90;30.41;101616.31;5070516;28;45888;-85
2022/03/07 14:30:05;;;;;;;;;40.50;35.50;;;;;22.86;30.93;101623.03;5073857;27;45572;-80
2022/03/07 14:32:31;;;;;;;;;36.75;32.00;;;;;22.83;30.43;101612.47;5069193;27;45566;-78
2022/03/07 14:34:57;;;;;;;;;35.25;31.00;;;;;22.82;29.71;101621.59;5071219;28;61240;-78
2022/03/07 14:37:34;;;;;;;;;37.75;33.75;;;;;22.76;29.16;101620.28;5068030;28;45604;-75
2022/03/07 14:39:59;;;;;;;;;40.00;33.50;;;;;22.70;28.66;101610.06;5067340;28;45501;-76
2022/03/07 14:42:26;;;;;;;;;35.75;32.50;;;;;22.68;28.45;101614.75;5071719;28;45477;-78
2022/03/07 14:44:54;;;;;;;;;32.50;30.75;;;;;22.62;28.21;101606.22;5069720;27;45595;-78
2022/03/07 14:47:20;;;;;;;;;33.75;30.25;;;;;22.58;28.02;101599.38;5074499;28;45339;-79
2022/03/07 14:49:46;;;;;;;;;38.50;34.00;;;;;22.58;28.08;101603.91;5067768;27;45557;-80
2022/03/07 14:52:13;;;;;;;;;34.00;30.50;;;;;22.57;28.50;101591.41;5074698;28;45505;-78
2022/03/07 14:54:40;;;;;;;;;31.50;29.75;;;;;22.60;28.85;101588.41;5071481;28;46275;-78
2022/03/07 14:57:07;;;;;;;;;29.00;29.00;;;;;22.72;28.87;101592.69;5070720;28;45424;-76
2022/03/07 14:59:33;;;;;;;;;30.25;30.00;;;;;22.86;29.18;101590.53;5075435;28;45407;-75
2022/03/07 15:01:59;;;;;;;;;28.25;28.25;;;;;22.98;28.65;101588.53;5068231;27;45651;-75
2022/03/07 15:04:24;;;;;;;;;25.75;23.75;;;;;23.10;29.16;101592.78;5069325;27;46576;-75
2022/03/07 15:06:49;;;;;;;;;39.25;34.25;;;;;23.18;26.85;101594.78;5074470;28;45455;-79
2022/03/07 15:09:15;;;;;;;;;36.00;33.75;;;;;23.12;25.86;101584.50;5073387;27;54040;-79
2022/03/07 15:11:42;;;;;;;;;40.25;34.25;;;;;22.99;25.62;101577.56;5073736;27;45657;-79
2022/03/07 15:14:09;;;;;;;;;35.75;33.00;;;;;22.87;25.63;101579.56;5067109;28;46099;-80
2022/03/07 15:16:35;;;;;;;;;38.50;32.50;;;;;22.79;26.45;101568.59;5073652;28;45573;-77
2022/03/07 15:19:04;;;;;;;;;35.50;30.50;;;;;22.71;26.82;101573.88;5068798;28;45835;-80
2022/03/07 15:21:30;;;;;;;;;34.00;30.00;;;;;22.61;26.80;101572.00;5073969;28;45566;-87
2022/03/07 15:23:59;;;;;;;;;37.00;29.00;;;;;22.59;27.57;101573.16;5073676;27;45371;-88
2022/03/07 15:26:29;;;;;;;;;31.00;28.00;;;;;22.51;28.30;101558.47;5071498;27;45529;-85
2022/03/07 15:28:57;;;;;;;;;35.75;32.25;;;;;22.54;28.49;101567.31;5073991;27;45486;-84
2022/03/07 15:31:23;;;;;;;;;37.50;31.50;;;;;22.51;28.67;101561.19;5068584;27;45524;-75
2022/03/07 15:33:48;;;;;;;;;38.75;32.25;;;;;22.53;28.74;101563.75;5061655;27;48950;-74
2022/03/07 15:36:14;;;;;;;;;31.75;27.50;;;;;22.61;29.56;101558.50;5070377;28;45437;-74
2022/03/07 15:38:39;;;;;;;;;27.50;26.50;;;;;22.74;29.47;101558.22;5068271;27;45519;-73
2022/03/07 15:41:04;;;;;;;;;25.50;23.00;;;;;22.84;29.91;101550.06;5072902;27;45574;-74
2022/03/07 15:43:30;;;;;;;;;29.25;25.25;;;;;22.99;30.18;101558.63;5069783;28;60584;-73
2022/03/07 15:45:55;;;;;;;;;21.75;19.75;;;;;23.11;30.70;101544.91;5075550;27;45508;-75
2022/03/07 15:48:20;;;;;;;;;26.25;24.50;;;;;23.20;30.74;101548.56;5074302;27;48918;-74
2022/03/07 15:50:46;;;;;;;;;25.75;23.75;;;;;23.28;30.82;101546.84;5065849;27;45427;-74
2022/03/07 15:53:11;;;;;;;;;21.25;19.00;;;;;23.37;30.64;101545.13;5073013;27;47149;-76
2022/03/07 15:55:37;;;;;;;;;20.00;20.00;;;;;23.47;31.22;101547.81;5071592;27;45508;-75
2022/03/07 15:58:02;;;;;;;;;25.00;21.75;;;;;23.53;31.20;101539.09;5071702;28;45582;-75
2022/03/07 16:00:28;;;;;;;;;21.00;21.00;;;;;23.62;31.46;101540.03;5070678;28;45444;-74
2022/03/07 16:02:53;;;;;;;;;26.00;22.75;;;;;23.67;31.27;101534.19;5073022;27;46177;-74
2022/03/07 16:05:18;;;;;;;;;19.75;18.50;;;;;23.73;31.83;101549.84;5073369;27;45304;-73
2022/03/07 16:07:44;;;;;;;;;24.33;21.33;;;;;23.78;32.18;101541.25;5062720;27;46177;-73
2022/03/07 16:10:09;;;;;;;;;21.67;19.00;;;;;23.81;31.98;101539.09;5072330;28;45859;-74
2022/03/07 16:12:38;;;;;;;;;17.00;15.67;;;;;23.83;32.04;101536.25;5063603;27;46581;-74
2022/03/07 16:15:05;;;;;;;;;20.00;20.00;;;;;23.88;32.45;101546.63;5072861;27;45806;-73
2022/03/07 16:17:30;;;;;;;;;21.00;17.00;;;;;23.90;32.61;101541.88;5068304;28;45737;-73
2022/03/07 16:19:56;;;;;;;;;22.00;18.67;;;;;23.92;32.73;101535.31;5063043;28;45563;-73
2022/03/07 16:22:22;;;;;;;;;21.00;19.25;;;;;23.95;32.87;101539.59;5066630;27;46241;-73